Terminal Aerodrome Forecast
Issued by NWS Corpus Christi, TX

Home | Current Version | Previous Version | Text Only | Print | Product List | Glossary On
Versions: 1 2 3 4 5 6 7 8 9 10 11 12 13 14 15 16 17 18 19
000
FTUS44 KCRP 171100
TAFCRP
TAF
KCRP 171130Z 1712/1812 VRB06KT P6SM VCSH SCT015 OVC100
      TEMPO 1712/1714 5SM -SHRA BR
     FM171400 17010KT P6SM VCTS SCT025CB
      TEMPO 1714/1718 5SM TSRA BKN025CB
     FM171800 15012G18KT P6SM VCTS SCT028CB BKN040
      TEMPO 1718/1722 4SM TSRA BKN028CB
     FM180000 16011KT P6SM FEW015=

USA.gov is the U.S. government's official web portal to all federal, state and local government web resources and services.